createdAt,value
2023-07-24T00:01:37.861Z,5.63
2023-07-24T00:05:39.860Z,5.22
2023-07-24T00:09:41.940Z,5.20
2023-07-24T00:13:43.963Z,5.13
2023-07-24T00:17:46.132Z,4.80
2023-07-24T00:21:48.198Z,5.63
2023-07-24T00:25:50.282Z,5.32
2023-07-24T00:29:52.444Z,4.93
2023-07-24T00:33:54.611Z,4.57
2023-07-24T00:37:56.688Z,5.18
2023-07-24T00:41:58.822Z,4.75
2023-07-24T00:46:00.897Z,5.47
2023-07-24T00:50:03.243Z,4.95
2023-07-24T00:54:07.077Z,4.60
2023-07-24T00:58:12.348Z,4.80
2023-07-24T01:02:14.539Z,4.60
2023-07-24T01:06:20.931Z,4.95
2023-07-24T01:10:28.839Z,5.35
2023-07-24T01:14:56.390Z,5.60
2023-07-24T01:18:58.838Z,4.32
2023-07-24T01:23:23.061Z,5.50
2023-07-24T01:27:25.852Z,4.80
2023-07-24T01:31:28.723Z,5.95
2023-07-24T01:35:33.104Z,4.88
2023-07-24T01:39:36.472Z,4.95
2023-07-24T01:43:38.745Z,5.17
2023-07-24T01:47:41.116Z,5.22
2023-07-24T01:51:43.156Z,5.60
2023-07-24T01:55:45.296Z,5.68
2023-07-24T01:59:47.831Z,5.72
2023-07-24T02:03:50.183Z,4.90
2023-07-24T02:07:52.231Z,5.95
2023-07-24T02:11:57.400Z,4.88
2023-07-24T02:16:01.342Z,5.25
2023-07-24T02:20:04.030Z,5.88
2023-07-24T02:24:18.105Z,5.18
2023-07-24T02:28:20.221Z,4.55
2023-07-24T02:32:25.152Z,4.25
2023-07-24T02:36:27.576Z,4.68
2023-07-24T02:40:29.881Z,4.90
2023-07-24T02:44:35.178Z,4.90
2023-07-24T02:48:38.072Z,4.82
2023-07-24T02:52:40.249Z,5.03
2023-07-24T02:56:42.356Z,5.85
2023-07-24T03:00:44.471Z,5.13
2023-07-24T03:04:46.574Z,4.95
2023-07-24T03:08:48.827Z,4.95
2023-07-24T03:12:50.958Z,5.43
2023-07-24T03:16:53.008Z,5.43
2023-07-24T03:20:55.133Z,4.28
2023-07-24T03:24:57.173Z,4.43
2023-07-24T03:28:59.263Z,4.28
2023-07-24T03:33:02.830Z,5.05
2023-07-24T03:37:07.409Z,3.70
2023-07-24T03:41:09.651Z,4.50
2023-07-24T03:45:11.832Z,4.25
2023-07-24T03:49:14.015Z,4.28
2023-07-24T03:53:16.120Z,5.05
2023-07-24T03:57:18.150Z,5.07
2023-07-24T04:01:20.422Z,4.95
2023-07-24T04:05:22.717Z,5.35
2023-07-24T04:09:24.769Z,4.97
2023-07-24T04:13:26.849Z,4.25
2023-07-24T04:17:28.966Z,4.43
2023-07-24T04:21:31.154Z,3.83
2023-07-24T04:25:33.187Z,4.40
2023-07-24T04:29:35.831Z,3.72
2023-07-24T04:33:37.998Z,4.07
2023-07-24T04:37:40.054Z,4.13
2023-07-24T04:41:42.133Z,3.95
2023-07-24T04:45:44.197Z,4.13
2023-07-24T04:49:46.421Z,4.30
2023-07-24T04:53:48.665Z,3.90
2023-07-24T04:57:50.743Z,4.68
2023-07-24T05:01:52.957Z,4.60
2023-07-24T05:05:57.521Z,4.32
2023-07-24T05:10:00.264Z,5.72
2023-07-24T05:14:02.449Z,4.63
2023-07-24T05:18:04.699Z,4.50
2023-07-24T05:22:07.064Z,4.78
2023-07-24T05:26:09.280Z,4.15
2023-07-24T05:30:11.597Z,4.00
2023-07-24T05:34:13.721Z,3.75
2023-07-24T05:38:15.789Z,4.25
2023-07-24T05:42:18.100Z,4.13
2023-07-24T05:46:20.682Z,3.38
2023-07-24T05:50:24.629Z,10.55
2023-07-24T05:54:28.445Z,5.78
2023-07-24T05:58:32.375Z,4.55
2023-07-24T06:02:34.943Z,4.50
2023-07-24T06:06:37.872Z,5.60
2023-07-24T06:10:40.034Z,5.07
2023-07-24T06:14:42.299Z,4.30
2023-07-24T06:18:44.423Z,5.07
2023-07-24T06:22:46.626Z,4.25
2023-07-24T06:26:48.874Z,4.82
2023-07-24T06:30:54.556Z,4.40
2023-07-24T06:34:56.802Z,4.53
2023-07-24T06:38:59.013Z,4.53
2023-07-24T06:43:01.267Z,4.78
2023-07-24T06:47:03.508Z,4.03
2023-07-24T06:51:05.738Z,4.38
2023-07-24T06:55:08.568Z,4.85
2023-07-24T06:59:10.639Z,4.80
2023-07-24T07:03:16.533Z,4.28
2023-07-24T07:07:18.770Z,4.30
2023-07-24T07:11:21.323Z,3.63
2023-07-24T07:15:23.507Z,3.55
2023-07-24T07:19:25.542Z,3.05
2023-07-24T07:23:27.541Z,3.00
2023-07-24T07:27:29.568Z,2.70
2023-07-24T07:31:31.820Z,2.92
2023-07-24T07:35:34.684Z,3.50
2023-07-24T07:39:37.346Z,3.35
2023-07-24T07:43:40.183Z,3.47
2023-07-24T07:47:42.392Z,3.95
2023-07-24T07:51:44.487Z,3.92
2023-07-24T07:55:46.662Z,3.58
2023-07-24T07:59:48.776Z,3.47
2023-07-24T08:03:51.008Z,4.10
2023-07-24T08:07:53.209Z,3.17
2023-07-24T08:11:55.244Z,3.13
2023-07-24T08:15:57.412Z,3.20
2023-07-24T08:19:59.580Z,2.80
2023-07-24T08:24:03.249Z,2.80
2023-07-24T08:28:06.841Z,2.55
2023-07-24T08:32:09.470Z,3.28
2023-07-24T08:36:13.601Z,3.07
2023-07-24T08:40:16.946Z,2.53
2023-07-24T08:44:21.674Z,2.63
2023-07-24T08:48:24.826Z,2.88
2023-07-24T08:52:35.946Z,3.10
2023-07-24T08:56:40.535Z,3.85
2023-07-24T09:00:42.684Z,2.90
2023-07-24T09:04:50.056Z,2.97
2023-07-24T09:08:59.318Z,3.30
2023-07-24T09:13:05.314Z,2.67
2023-07-24T09:17:09.371Z,3.47
2023-07-24T09:21:14.866Z,3.20
2023-07-24T09:25:17.280Z,3.45
2023-07-24T09:29:19.934Z,3.13
2023-07-24T09:33:35.797Z,2.80
2023-07-24T09:37:37.968Z,3.10
2023-07-24T09:41:41.794Z,3.17
2023-07-24T09:45:46.006Z,3.05
2023-07-24T09:49:49.243Z,4.10
2023-07-24T09:53:59.907Z,3.75
2023-07-24T09:58:02.689Z,3.13
2023-07-24T10:02:05.303Z,4.07
2023-07-24T10:06:11.800Z,3.65
2023-07-24T10:10:14.514Z,3.42
2023-07-24T10:14:17.429Z,3.08
2023-07-24T10:22:29.674Z,3.45
2023-07-24T10:26:32.027Z,3.92
2023-07-24T10:30:41.620Z,3.60
2023-07-24T10:34:43.731Z,3.10
2023-07-24T10:38:45.950Z,3.20
2023-07-24T10:42:48.063Z,3.17
2023-07-24T10:46:50.145Z,3.23
2023-07-24T10:50:54.711Z,2.72
2023-07-24T10:54:57.763Z,3.42
2023-07-24T10:59:04.583Z,3.03
2023-07-24T11:03:10.542Z,3.58
2023-07-24T11:07:12.731Z,3.60
2023-07-24T11:11:35.487Z,3.45
2023-07-24T11:15:38.137Z,3.75
2023-07-24T11:20:14.081Z,2.90
2023-07-24T11:24:18.997Z,2.92
2023-07-24T11:28:21.685Z,2.95
2023-07-24T11:36:26.067Z,3.03
2023-07-24T11:40:38.467Z,3.72
2023-07-24T11:44:41.087Z,2.85
2023-07-24T11:52:51.056Z,3.30
2023-07-24T11:56:53.323Z,2.97
2023-07-24T12:00:56.016Z,4.32
2023-07-24T12:09:08.076Z,2.95
2023-07-24T12:13:10.820Z,3.28
2023-07-24T12:17:19.602Z,3.33
2023-07-24T12:21:21.756Z,2.90
2023-07-24T12:25:24.242Z,3.00
2023-07-24T12:33:29.028Z,3.20
2023-07-24T12:37:31.183Z,3.08
2023-07-24T12:41:33.643Z,2.90
2023-07-24T12:45:36.105Z,3.72
2023-07-24T12:49:38.960Z,3.47
2023-07-24T12:53:44.574Z,2.72
2023-07-24T12:57:52.403Z,2.97
2023-07-24T13:01:54.532Z,3.95
2023-07-24T13:05:56.585Z,2.95
2023-07-24T13:09:58.698Z,4.15
2023-07-24T13:14:00.789Z,3.65
2023-07-24T13:18:13.780Z,3.97
2023-07-24T13:22:24.376Z,3.22
2023-07-24T13:30:28.648Z,3.27
2023-07-24T13:34:30.824Z,3.70
2023-07-24T13:38:33.781Z,3.35
2023-07-24T13:42:36.293Z,3.42
2023-07-24T13:46:40.452Z,3.20
2023-07-24T13:50:42.906Z,3.00
2023-07-24T13:54:45.020Z,3.70
2023-07-24T13:58:47.056Z,2.92
2023-07-24T14:02:49.288Z,3.13
2023-07-24T14:06:51.316Z,3.20
2023-07-24T14:10:53.454Z,3.17
2023-07-24T14:18:57.636Z,2.83
2023-07-24T14:22:59.814Z,3.35
2023-07-24T14:27:02.264Z,3.20
2023-07-24T14:35:08.170Z,2.95
2023-07-24T14:39:10.279Z,3.53
2023-07-24T14:43:12.555Z,3.15
2023-07-24T14:47:14.824Z,3.83
2023-07-24T14:51:16.863Z,3.30
2023-07-24T14:55:18.993Z,3.22
2023-07-24T14:59:21.106Z,3.35
2023-07-24T15:03:24.405Z,3.30
2023-07-24T15:07:26.564Z,3.38
2023-07-24T15:11:28.865Z,3.50
2023-07-24T15:15:31.040Z,3.55
2023-07-24T15:19:33.161Z,3.17
2023-07-24T15:23:35.231Z,3.53
2023-07-24T15:27:37.379Z,3.28
2023-07-24T15:31:42.089Z,3.70
2023-07-24T15:35:44.403Z,2.95
2023-07-24T15:39:46.511Z,3.60
2023-07-24T15:43:48.568Z,3.58
2023-07-24T15:47:50.722Z,3.20
2023-07-24T15:51:52.950Z,3.72
2023-07-24T15:55:55.125Z,3.88
2023-07-24T15:59:57.377Z,3.55
2023-07-24T16:03:59.522Z,3.00
2023-07-24T16:08:02.527Z,3.85
2023-07-24T16:12:04.948Z,3.88
2023-07-24T16:16:07.462Z,3.10
2023-07-24T16:20:10.174Z,3.70
2023-07-24T16:28:14.850Z,3.90
2023-07-24T16:32:17.000Z,3.90
2023-07-24T16:36:19.394Z,3.35
2023-07-24T16:40:21.641Z,3.63
2023-07-24T16:44:33.257Z,3.97
2023-07-24T16:48:35.909Z,4.28
2023-07-24T16:52:38.094Z,3.15
2023-07-24T16:56:40.279Z,4.33
2023-07-24T17:00:42.532Z,3.97
2023-07-24T17:04:44.676Z,3.75
2023-07-24T17:08:47.939Z,5.93
2023-07-24T17:12:50.157Z,3.63
2023-07-24T17:16:52.314Z,4.20
2023-07-24T17:20:54.920Z,3.58
2023-07-24T17:24:57.347Z,3.93
2023-07-24T17:29:02.925Z,3.58
2023-07-24T17:33:05.191Z,3.65
2023-07-24T17:37:07.505Z,3.53
2023-07-24T17:41:10.672Z,3.17
2023-07-24T17:45:15.765Z,3.13
2023-07-24T17:49:17.995Z,4.07
2023-07-24T17:53:20.053Z,3.17
2023-07-24T17:57:22.282Z,3.80
2023-07-24T18:01:24.878Z,4.13
2023-07-24T18:05:27.310Z,3.70
2023-07-24T18:09:29.717Z,3.20
2023-07-24T18:13:31.836Z,3.30
2023-07-24T18:17:36.511Z,3.38
2023-07-24T18:21:39.550Z,3.73
2023-07-24T18:25:41.777Z,3.50
2023-07-24T18:29:46.178Z,2.90
2023-07-24T18:33:48.266Z,3.17
2023-07-24T18:37:50.622Z,5.20
2023-07-24T18:41:52.829Z,4.00
2023-07-24T18:45:58.321Z,3.22
2023-07-24T18:50:00.918Z,4.07
2023-07-24T18:54:03.178Z,4.00
2023-07-24T18:58:05.305Z,4.13
2023-07-24T19:02:07.396Z,3.92
2023-07-24T19:06:09.792Z,3.05
2023-07-24T19:10:15.778Z,3.07
2023-07-24T19:14:18.011Z,2.97
2023-07-24T19:18:20.040Z,4.18
2023-07-24T19:22:22.115Z,3.28
2023-07-24T19:26:24.259Z,3.45
2023-07-24T19:30:26.417Z,3.05
2023-07-24T19:34:28.569Z,2.92
2023-07-24T19:38:30.617Z,2.80
2023-07-24T19:42:32.718Z,2.92
2023-07-24T19:46:34.882Z,2.58
2023-07-24T19:50:37.079Z,3.30
2023-07-24T19:54:39.284Z,2.50
2023-07-24T19:58:41.606Z,2.53
2023-07-24T20:02:43.813Z,2.97
2023-07-24T20:06:46.745Z,2.55
2023-07-24T20:10:50.219Z,2.97
2023-07-24T20:14:52.510Z,2.42
2023-07-24T20:18:54.816Z,2.05
2023-07-24T20:22:57.084Z,2.87
2023-07-24T20:26:59.318Z,2.53
2023-07-24T20:31:01.756Z,3.13
2023-07-24T20:35:04.117Z,2.17
2023-07-24T20:39:06.440Z,2.87
2023-07-24T20:43:10.277Z,2.90
2023-07-24T20:47:12.538Z,2.97
2023-07-24T20:51:21.815Z,3.15
2023-07-24T20:55:23.973Z,2.30
2023-07-24T20:59:26.357Z,2.65
2023-07-24T21:03:28.477Z,3.43
2023-07-24T21:07:30.682Z,2.15
2023-07-24T21:11:33.767Z,2.28
2023-07-24T21:15:36.890Z,3.00
2023-07-24T21:19:39.023Z,2.20
2023-07-24T21:23:41.303Z,2.50
2023-07-24T21:27:43.409Z,2.38
2023-07-24T21:31:45.536Z,2.75
2023-07-24T21:36:02.446Z,2.85
2023-07-24T21:40:05.208Z,2.60
2023-07-24T21:44:07.297Z,2.65
2023-07-24T21:48:09.717Z,2.80
2023-07-24T21:52:12.093Z,2.28
2023-07-24T21:56:14.727Z,2.25
2023-07-24T22:00:16.943Z,2.17
2023-07-24T22:04:19.372Z,2.50
2023-07-24T22:08:21.430Z,2.53
2023-07-24T22:12:23.739Z,2.72
2023-07-24T22:16:25.921Z,2.38
2023-07-24T22:20:39.219Z,2.72
2023-07-24T22:24:42.478Z,2.78
2023-07-24T22:28:44.522Z,2.67
2023-07-24T22:32:46.801Z,2.83
2023-07-24T22:36:48.882Z,2.30
2023-07-24T22:40:50.999Z,2.20
2023-07-24T22:44:53.079Z,2.88
2023-07-24T22:48:55.370Z,2.95
2023-07-24T22:52:57.880Z,2.72
2023-07-24T22:56:59.933Z,2.57
2023-07-24T23:01:02.026Z,2.20
2023-07-24T23:05:08.928Z,3.35
2023-07-24T23:09:13.214Z,2.58
2023-07-24T23:13:15.678Z,3.05
2023-07-24T23:17:17.802Z,2.38
2023-07-24T23:21:19.922Z,2.60
2023-07-24T23:25:22.088Z,2.55
2023-07-24T23:29:24.228Z,2.90
2023-07-24T23:33:26.392Z,2.42
2023-07-24T23:37:28.441Z,2.97
2023-07-24T23:41:31.032Z,2.05
2023-07-24T23:45:34.125Z,2.38
2023-07-24T23:49:36.256Z,2.30
2023-07-24T23:53:38.326Z,2.78
2023-07-24T23:57:40.454Z,2.67
